Aérodrome :
LOGIN :

S'inscrire | Disclaimer

   EN    FR    IT 

 










Légende :    VFR   VFR Marginal   IFR   IFR Intensif   IFR Très Intensif
Visi : 
Plafond : 
>= 8 km
>= 3000ft
5 à 8 km
1000 à 3000 ft
1500m à 5 km
500 à 1000 ft
800 à 1500m
200 à 500 ft
< 800m
< 200 ft
Symboles :   Orages  Brouillard  Fortes neiges  Fortes précipitations  Vent > 20 kt
SIGMETs :   Divers  Orages  Givrage  Turbulence  Onde Orograph.  Cendres Volcan.







- Altitude de l'aérodrome : 160 ft
- Code IATA : FMO


EDDG - Münster Osnabrück Int.

DERNIER METAR :
  • 200720Z 24010KT 9999 FEW030 SCT060 BKN120 05/03 Q1018 NOSIG

METARs EXPIRÉS :
  • 200650Z 24008KT 9999 FEW030 SCT050 BKN120 05/03 Q1018 NOSIG
  • 200620Z 23009KT 9999 -RA FEW013 SCT025 BKN040 05/04 Q1018 NOSIG
  • 200550Z 24010KT 9999 -RA FEW013 BKN040 05/04 Q1018 NOSIG
  • 200520Z 24009KT 9999 FEW040 SCT060 BKN120 05/03 Q1018 NOSIG
  • 200450Z 24009KT 9999 FEW025 SCT040 BKN120 05/03 Q1018 NOSIG

TAF TAF EDDG
Valide du 20 à 06h jusqu'au 21 à 06h UTC


200500Z 2006/2106 25009KT 9999 SCT030
BECMG 2012/2015 18008KT BKN012
TEMPO 2014/2017 RA
BECMG 2015/2017 BKN007
TEMPO 2017/2102 2500 RADZ BR BKN004
BECMG 2021/2024 24009KT
TEMPO 2102/2106 3500 -RADZ BR BKN004
Pas de NOTAMs connus pour ce terrain.



MET'MAP, la Météo Aéronautique d'un coup d'oeil ! - Copyright ORBIFLY Décembre 2007 - Disclaimer

ORBIFLY MET'MAP TEAM :

Programmation & Développement : Alexandra Zaïnal
Conception & Développement : Baudouin d'Aumeries
Co-Programmation & Développement : Marc-Olivier Méhu
Soutien technique & logistique : Manuel Goepfert

Contact : metmap@orbifly.com




SOURCES & CREDITS :

   NOAA